Huvudsida
METAR-TAF:

METAR-TAF

Flygplatser :

Ho Chi Minh-staden, Vietnam

Tan Son Nhat internationella flygplats

latitud: 10-49N, longitud: 106-40E, höjd: 19 m

Aktuellt väderrapport

Denna rapport gjordes för 36 minuter sedan, klockan 00:30 UTC
Vind 2 kt varierande vindriktning
Temperatur 29°C
Fuktighet 84%
Tryck 1009 hPa
Sikt 10 km eller mer
Spridda moln på en höjd av 1700 ft

METAR: VVTS 250030Z VRB02KT 9999 SCT017 29/26 Q1009 NOSIG

Tid: 08:06 (01:06 UTC)

Väderprognos

Denna rapport gjordes för 2 timmar och 6 minuter sedan, klockan 23:00 UTC
Prognos gäller från 25 kl. 00 UTC till 26 kl. 06 UTC
Vind 8 kt från syd/sydost
Sikt 10 km eller mer
Spridda moln på en höjd av 1700 ft
Temporärt
från 25 kl. 07 UTC till 25 kl. 12 UTC
Spridda moln på en höjd av 1500 ft
Få moln på en höjd av 1700 ft, Cumulonimbus.
åska

TAF: VVTS 242300Z 2500/2606 16008KT 9999 SCT017 TEMPO 2507/2512 TS SCT015 FEW017CB

Aktuella väderrapporter och prognoser från 4000 flygplatser (METAR- och TAF-rapporter).

De tillgängliga stationerna syns som gula och röda prickar på kartan.

För musen över prickarna för att se namnen på stationerna.

Klicka sedan för att få väderrapporter och prognoser.

För att ändra kartan: Klicka på de gröna knapparna med ett svart kors på för att zooma in; den gröna knappen med ett streck på för att zooma ut; eller på de gröna pilarna för angränsande kartor.


METAR-TAF: